Time;durP1;ratioP1;P1;durP2;ratioP2;P2;SDS_P1;SDS_P2;PMS_P1;PMS_P2;Temp;Humidity;BMP_temperature;BMP_pressure;BME280_temperature;BME280_humidity;BME280_pressure;Samples;Min_cycle;Max_cycle;Signal;HPM_P1;HPM_P2
2022/10/06 00:01:26;;;;;;;5.13;0.90;;;15.20;72.20;;;;;;5117538;27;20050;-75
2022/10/06 00:03:52;;;;;;;5.25;1.15;;;15.20;72.50;;;;;;5116762;27;20065;-75
2022/10/06 00:06:18;;;;;;;5.25;1.40;;;15.10;72.00;;;;;;5133951;27;20096;-75
2022/10/06 00:08:45;;;;;;;4.35;0.90;;;15.10;72.00;;;;;;5134104;27;20092;-75
2022/10/06 00:11:13;;;;;;;5.00;1.40;;;15.10;71.90;;;;;;5117022;27;20043;-75
2022/10/06 00:13:40;;;;;;;6.55;1.13;;;15.10;71.90;;;;;;5116829;27;20519;-75
2022/10/06 00:16:16;;;;;;;7.05;1.73;;;15.00;71.80;;;;;;5116941;27;20047;-75
2022/10/06 00:18:42;;;;;;;5.93;1.33;;;15.00;71.80;;;;;;5134035;27;20525;-75
2022/10/06 00:21:08;;;;;;;5.88;1.00;;;15.00;71.80;;;;;;5134272;27;20438;-75
2022/10/06 00:23:34;;;;;;;3.83;1.13;;;15.00;71.80;;;;;;5134156;27;20114;-75
2022/10/06 00:25:59;;;;;;;4.30;1.00;;;15.00;71.70;;;;;;5133589;27;20047;-75
2022/10/06 00:28:25;;;;;;;6.13;1.27;;;15.00;71.70;;;;;;5099541;27;20039;-75
2022/10/06 00:30:52;;;;;;;4.18;0.85;;;15.00;71.60;;;;;;5133675;27;20085;-75
2022/10/06 00:33:18;;;;;;;7.47;1.60;;;14.90;71.30;;;;;;5134074;27;20047;-75
2022/10/06 00:35:44;;;;;;;7.32;1.15;;;14.90;71.10;;;;;;5116368;27;20122;-75
2022/10/06 00:38:11;;;;;;;5.80;0.90;;;14.90;70.90;;;;;;5133656;27;20043;-75
2022/10/06 00:40:44;;;;;;;6.47;1.27;;;14.90;70.70;;;;;;5133571;27;20125;-75
2022/10/06 00:43:44;;;;;;;10.80;2.17;;;14.90;70.50;;;;;;5133181;27;20428;-75
2022/10/06 00:46:34;;;;;;;5.22;1.58;;;14.80;69.90;;;;;;5131771;27;20085;-75
2022/10/06 00:49:29;;;;;;;8.40;1.42;;;14.80;69.80;;;;;;5133521;27;20027;-75
2022/10/06 00:52:01;;;;;;;5.38;1.30;;;14.70;69.50;;;;;;5133299;27;20042;-75
2022/10/06 00:54:27;;;;;;;9.25;1.70;;;14.70;69.60;;;;;;5124759;27;20042;-75
2022/10/06 00:56:53;;;;;;;5.75;1.60;;;14.70;69.30;;;;;;5133317;27;20065;-75
2022/10/06 00:59:19;;;;;;;4.53;1.38;;;14.70;69.20;;;;;;5116246;27;20481;-75
2022/10/06 01:02:05;;;;;;;6.50;1.00;;;14.60;69.00;;;;;;5133354;27;20087;-75
2022/10/06 01:04:34;;;;;;;8.65;2.42;;;14.60;68.50;;;;;;5078255;27;20118;-75
2022/10/06 01:07:00;;;;;;;5.95;1.40;;;14.60;68.60;;;;;;5115775;27;20063;-75
2022/10/06 01:09:27;;;;;;;4.15;1.17;;;14.60;68.40;;;;;;5132833;27;20035;-75
2022/10/06 01:11:56;;;;;;;4.65;1.25;;;14.50;68.60;;;;;;5116070;27;20118;-75
2022/10/06 01:14:23;;;;;;;10.13;1.40;;;14.50;68.30;;;;;;5132775;27;20047;-75
2022/10/06 01:17:00;;;;;;;5.80;1.35;;;14.50;68.80;;;;;;5133243;27;20719;-75
2022/10/06 01:19:48;;;;;;;8.60;2.00;;;14.40;68.30;;;;;;5132861;27;20123;-75
2022/10/06 01:22:15;;;;;;;5.90;1.13;;;14.40;68.10;;;;;;5132658;27;20122;-75
2022/10/06 01:24:43;;;;;;;7.32;1.67;;;14.40;68.10;;;;;;5132546;27;20096;-75
2022/10/06 01:27:10;;;;;;;4.30;1.27;;;14.30;68.10;;;;;;5132663;27;20571;-75
2022/10/06 01:29:36;;;;;;;8.07;2.00;;;14.30;68.10;;;;;;5132295;27;20038;-75
2022/10/06 01:32:02;;;;;;;9.25;1.98;;;14.30;67.90;;;;;;5132358;27;20049;-75
2022/10/06 01:34:28;;;;;;;6.50;1.20;;;14.30;67.90;;;;;;5115207;27;20035;-75
2022/10/06 01:36:54;;;;;;;8.98;1.75;;;14.20;67.90;;;;;;5115345;27;20041;-75
2022/10/06 01:39:20;;;;;;;6.95;1.20;;;14.20;67.90;;;;;;5132532;27;20023;-75
2022/10/06 01:41:46;;;;;;;7.18;1.35;;;14.20;67.90;;;;;;5115483;27;20114;-75
2022/10/06 01:44:13;;;;;;;9.13;2.03;;;14.20;68.00;;;;;;5114915;28;20051;-75
2022/10/06 01:46:39;;;;;;;11.82;2.33;;;14.10;68.00;;;;;;5132235;27;20047;-75
2022/10/06 01:49:04;;;;;;;5.50;1.38;;;14.10;68.30;;;;;;5115430;27;20035;-75
2022/10/06 01:51:30;;;;;;;6.22;1.67;;;14.10;67.80;;;;;;5132334;27;20118;-75
2022/10/06 01:53:56;;;;;;;6.53;1.23;;;14.00;67.80;;;;;;5134280;27;20070;-75
2022/10/06 01:56:21;;;;;;;7.20;1.65;;;14.00;68.00;;;;;;5116776;27;20042;-75
2022/10/06 01:58:47;;;;;;;8.52;1.75;;;14.00;68.00;;;;;;5132644;28;20031;-75
2022/10/06 02:01:13;;;;;;;5.45;1.15;;;14.00;67.90;;;;;;5131723;27;20078;-75
2022/10/06 02:03:39;;;;;;;4.97;1.17;;;14.00;68.00;;;;;;5115162;28;20070;-75
2022/10/06 02:06:06;;;;;;;5.68;1.42;;;14.00;68.10;;;;;;5132323;27;20075;-75
2022/10/06 02:08:33;;;;;;;8.25;1.77;;;14.00;68.00;;;;;;5132237;28;20062;-75
2022/10/06 02:11:04;;;;;;;7.43;1.23;;;13.90;67.80;;;;;;5124356;27;20046;-75
2022/10/06 02:13:30;;;;;;;7.40;1.30;;;13.90;67.70;;;;;;5131983;28;20790;-75
2022/10/06 02:15:56;;;;;;;8.45;1.95;;;13.90;67.60;;;;;;5115813;28;20043;-75
2022/10/06 02:18:23;;;;;;;6.57;1.00;;;13.90;67.40;;;;;;5114370;27;20068;-75
2022/10/06 02:20:48;;;;;;;8.60;2.85;;;13.90;67.40;;;;;;5115402;28;20501;-75
2022/10/06 02:23:14;;;;;;;5.35;1.25;;;13.80;67.40;;;;;;5131741;28;20035;-75
2022/10/06 02:25:40;;;;;;;7.30;1.55;;;13.80;67.30;;;;;;5132335;27;20046;-75
2022/10/06 02:28:05;;;;;;;8.10;1.30;;;13.80;67.30;;;;;;5110724;28;20036;-74
2022/10/06 02:30:31;;;;;;;8.43;1.65;;;13.80;67.30;;;;;;5121288;27;20167;-74
2022/10/06 02:32:57;;;;;;;9.10;2.55;;;13.70;67.20;;;;;;5126037;27;20050;-75
2022/10/06 02:35:23;;;;;;;7.13;1.60;;;13.70;66.90;;;;;;5115207;28;20050;-75
2022/10/06 02:37:49;;;;;;;5.60;1.30;;;13.70;67.00;;;;;;5114328;28;20424;-75
2022/10/06 02:40:15;;;;;;;7.35;1.85;;;13.70;67.00;;;;;;5131714;27;20039;-75
2022/10/06 02:42:41;;;;;;;5.35;1.33;;;13.70;67.10;;;;;;5131677;28;20043;-75
2022/10/06 02:45:07;;;;;;;4.97;1.25;;;13.60;67.00;;;;;;5114659;28;20066;-75
2022/10/06 02:47:34;;;;;;;7.40;1.40;;;13.60;67.00;;;;;;5097391;27;20047;-75
2022/10/06 02:50:02;;;;;;;4.45;1.35;;;13.60;67.00;;;;;;5137792;27;20040;-75
2022/10/06 02:52:37;;;;;;;7.28;1.45;;;13.60;67.00;;;;;;5126657;28;20131;-75
2022/10/06 02:55:05;;;;;;;6.55;1.98;;;13.60;66.90;;;;;;5131872;28;20063;-75
2022/10/06 02:57:31;;;;;;;9.75;1.42;;;13.50;66.90;;;;;;5131576;28;20050;-75
2022/10/06 02:59:56;;;;;;;7.85;1.55;;;13.50;66.80;;;;;;5114368;28;20043;-75
2022/10/06 03:02:22;;;;;;;10.35;1.80;;;13.50;66.90;;;;;;5115057;28;20031;-75
2022/10/06 03:04:48;;;;;;;8.80;1.45;;;13.50;66.80;;;;;;5131964;28;20046;-75
2022/10/06 03:07:14;;;;;;;8.20;1.20;;;13.50;67.00;;;;;;5131913;28;20482;-75
2022/10/06 03:09:40;;;;;;;9.65;2.03;;;13.50;67.00;;;;;;5134584;27;20512;-75
2022/10/06 03:12:06;;;;;;;5.72;1.38;;;13.40;66.80;;;;;;5118137;27;20547;-74
2022/10/06 03:14:32;;;;;;;7.78;1.30;;;13.40;66.80;;;;;;5135056;27;20043;-74
2022/10/06 03:16:58;;;;;;;7.95;1.40;;;13.40;66.90;;;;;;5135211;27;20035;-75
2022/10/06 03:19:24;;;;;;;6.18;1.55;;;13.40;66.70;;;;;;5118022;27;20038;-75
2022/10/06 03:21:50;;;;;;;5.63;1.55;;;13.40;66.70;;;;;;5134921;27;20063;-74
2022/10/06 03:24:16;;;;;;;6.32;1.52;;;13.30;66.80;;;;;;5117505;27;20491;-74
2022/10/06 03:26:44;;;;;;;6.53;1.70;;;13.30;66.80;;;;;;5134797;27;20039;-74
2022/10/06 03:29:10;;;;;;;5.32;1.40;;;13.30;66.90;;;;;;5117969;27;20043;-75
2022/10/06 03:31:37;;;;;;;4.38;1.45;;;13.30;66.90;;;;;;5134984;27;20688;-74
2022/10/06 03:34:03;;;;;;;7.40;1.42;;;13.30;67.00;;;;;;5134744;27;20034;-74
2022/10/06 03:36:31;;;;;;;10.07;1.77;;;13.30;66.90;;;;;;5118195;27;20047;-74
2022/10/06 03:38:57;;;;;;;8.23;1.50;;;13.30;66.90;;;;;;5134686;27;20431;-74
2022/10/06 03:41:25;;;;;;;6.95;1.45;;;13.30;66.90;;;;;;5134988;27;20187;-74
2022/10/06 03:43:53;;;;;;;9.55;2.15;;;13.30;66.80;;;;;;5117156;27;20035;-74
2022/10/06 03:46:21;;;;;;;5.88;1.30;;;13.20;66.80;;;;;;5134773;27;20047;-74
2022/10/06 03:48:48;;;;;;;8.30;1.25;;;13.20;66.70;;;;;;5134169;27;20110;-75
2022/10/06 03:51:17;;;;;;;8.93;1.25;;;13.20;66.60;;;;;;5117432;27;20078;-75
2022/10/06 03:53:44;;;;;;;9.65;2.05;;;13.20;66.80;;;;;;5134061;27;20478;-74
2022/10/06 03:56:16;;;;;;;9.82;1.83;;;13.20;66.90;;;;;;5134677;27;20050;-74
2022/10/06 03:58:44;;;;;;;5.15;1.35;;;13.20;67.00;;;;;;5134482;27;20442;-74
2022/10/06 04:01:15;;;;;;;5.45;1.00;;;13.10;66.80;;;;;;5134930;27;20129;-75
2022/10/06 04:03:41;;;;;;;7.38;1.80;;;13.10;66.80;;;;;;5134079;27;20129;-75
2022/10/06 04:06:11;;;;;;;5.13;1.55;;;13.10;66.90;;;;;;5133969;27;20126;-75
2022/10/06 04:08:38;;;;;;;6.63;1.35;;;13.10;66.90;;;;;;5123774;27;20043;-74
2022/10/06 04:11:10;;;;;;;7.35;1.45;;;13.10;67.00;;;;;;5134699;27;20035;-74
2022/10/06 04:13:37;;;;;;;4.50;1.50;;;13.10;66.90;;;;;;5133718;27;20071;-75
2022/10/06 04:16:21;;;;;;;12.32;1.63;;;13.10;66.90;;;;;;5117216;27;20051;-75
2022/10/06 04:18:52;;;;;;;4.90;1.02;;;13.10;66.90;;;;;;5133883;27;20039;-75
2022/10/06 04:21:18;;;;;;;6.38;1.52;;;13.00;66.90;;;;;;5133867;27;20054;-75
2022/10/06 04:23:44;;;;;;;8.73;2.03;;;13.00;67.00;;;;;;5133352;27;20039;-75
2022/10/06 04:26:12;;;;;;;9.23;2.03;;;13.00;66.90;;;;;;5133933;27;20399;-75
2022/10/06 04:28:39;;;;;;;6.20;1.27;;;13.00;67.00;;;;;;5133757;27;20038;-74
2022/10/06 04:31:21;;;;;;;6.70;1.20;;;13.00;67.10;;;;;;5134121;27;20553;-74
2022/10/06 04:33:49;;;;;;;8.65;2.08;;;13.00;67.20;;;;;;5133147;27;20054;-74
2022/10/06 04:36:21;;;;;;;9.20;1.77;;;13.00;67.20;;;;;;5116161;27;20050;-75
2022/10/06 04:38:48;;;;;;;9.57;2.13;;;13.00;67.10;;;;;;5133424;27;20071;-74
2022/10/06 04:41:15;;;;;;;6.55;1.27;;;12.90;67.00;;;;;;5133866;27;20039;-74
2022/10/06 04:43:43;;;;;;;9.45;1.95;;;12.90;67.10;;;;;;5132926;27;20039;-74
2022/10/06 04:46:09;;;;;;;7.10;1.85;;;12.90;67.10;;;;;;5133546;27;20043;-74
2022/10/06 04:48:35;;;;;;;8.20;1.50;;;12.90;67.60;;;;;;5133671;27;20039;-75
2022/10/06 04:51:04;;;;;;;7.15;1.95;;;12.90;67.20;;;;;;5116184;27;20478;-74
2022/10/06 04:53:30;;;;;;;6.95;1.67;;;12.90;67.40;;;;;;5132993;27;20049;-74
2022/10/06 04:56:03;;;;;;;5.65;1.20;;;12.90;67.30;;;;;;5132998;27;20031;-74
2022/10/06 04:58:39;;;;;;;9.43;1.77;;;12.90;67.40;;;;;;5132695;27;20095;-74
2022/10/06 05:01:33;;;;;;;7.82;2.08;;;12.90;67.40;;;;;;5132759;27;20042;-74
2022/10/06 05:04:00;;;;;;;7.38;1.73;;;12.80;67.20;;;;;;5129737;27;20137;-74
2022/10/06 05:06:29;;;;;;;6.57;2.25;;;12.80;67.30;;;;;;5133309;27;20097;-74
2022/10/06 05:09:01;;;;;;;11.30;1.90;;;12.80;67.40;;;;;;5115573;27;20066;-74
2022/10/06 05:11:27;;;;;;;6.97;1.17;;;12.80;67.40;;;;;;5127027;27;20027;-75
2022/10/06 05:13:54;;;;;;;9.27;2.53;;;12.80;67.40;;;;;;5130440;27;20046;-74
2022/10/06 05:16:21;;;;;;;8.23;2.08;;;12.80;67.40;;;;;;5115879;27;20038;-74
2022/10/06 05:18:46;;;;;;;6.35;1.27;;;12.80;67.50;;;;;;5132944;27;20502;-74
2022/10/06 05:21:17;;;;;;;6.95;2.08;;;12.80;67.60;;;;;;5133034;27;20049;-74
2022/10/06 05:23:44;;;;;;;7.55;1.13;;;12.70;67.60;;;;;;5132706;27;20039;-74
2022/10/06 05:26:12;;;;;;;7.18;1.60;;;12.70;67.60;;;;;;5115607;27;20046;-74
2022/10/06 05:28:38;;;;;;;5.45;1.70;;;12.70;67.60;;;;;;5132858;27;20031;-74
2022/10/06 05:31:06;;;;;;;9.10;1.70;;;12.70;67.70;;;;;;5131860;27;20039;-74
2022/10/06 05:33:34;;;;;;;12.18;1.67;;;12.70;67.80;;;;;;5115509;27;20035;-74
2022/10/06 05:36:03;;;;;;;8.95;1.65;;;12.70;67.80;;;;;;5132357;27;20074;-74
2022/10/06 05:38:29;;;;;;;8.18;1.98;;;12.70;67.90;;;;;;5133137;27;20088;-74
2022/10/06 05:41:10;;;;;;;9.98;2.03;;;12.70;67.90;;;;;;5132561;27;20067;-74
2022/10/06 05:43:36;;;;;;;6.68;1.30;;;12.70;68.00;;;;;;5132499;27;20398;-74
2022/10/06 05:46:04;;;;;;;7.50;1.00;;;12.60;68.00;;;;;;5134020;27;20104;-74
2022/10/06 05:48:31;;;;;;;7.85;2.55;;;12.70;68.10;;;;;;5142318;27;20072;-74
2022/10/06 05:51:05;;;;;;;4.57;1.45;;;12.60;68.10;;;;;;5115466;27;20086;-74
2022/10/06 05:53:33;;;;;;;8.48;1.50;;;12.60;68.20;;;;;;5132404;27;20035;-74
2022/10/06 05:56:19;;;;;;;6.70;1.55;;;12.60;68.20;;;;;;5115556;28;20470;-74
2022/10/06 05:58:47;;;;;;;8.98;1.92;;;12.60;68.10;;;;;;5112365;28;20428;-74
2022/10/06 06:01:22;;;;;;;10.48;1.75;;;12.60;68.30;;;;;;5130101;28;20126;-74
2022/10/06 06:03:50;;;;;;;4.82;1.40;;;12.60;68.20;;;;;;5132450;28;20043;-74
2022/10/06 06:06:29;;;;;;;7.10;1.40;;;12.60;68.30;;;;;;5131937;27;20036;-73
2022/10/06 06:09:00;;;;;;;9.35;1.83;;;12.60;68.30;;;;;;5112247;28;20039;-74
2022/10/06 06:11:30;;;;;;;8.05;1.40;;;12.50;68.30;;;;;;5124358;28;20363;-74
2022/10/06 06:15:59;;;;;;;8.05;2.10;;;12.60;68.40;;;;;;5131914;27;20038;-74
2022/10/06 06:17:04;;;;;;;8.00;1.58;;;12.50;68.40;;;;;;5132276;28;20043;-74
2022/10/06 06:19:30;;;;;;;11.70;2.30;;;12.50;68.60;;;;;;5132211;28;20039;-74
2022/10/06 06:21:56;;;;;;;10.98;1.92;;;12.50;68.60;;;;;;5132450;27;20390;-74
2022/10/06 06:24:21;;;;;;;5.93;1.40;;;12.50;68.70;;;;;;5115508;27;20050;-74
2022/10/06 06:26:47;;;;;;;7.05;1.88;;;12.50;68.70;;;;;;5114913;28;20551;-74
2022/10/06 06:29:12;;;;;;;9.52;1.60;;;12.50;68.80;;;;;;5132400;27;20041;-74
2022/10/06 06:31:42;;;;;;;9.00;1.40;;;12.50;68.80;;;;;;5131938;27;20036;-74
2022/10/06 06:34:08;;;;;;;8.32;1.67;;;12.50;68.90;;;;;;5114627;28;20032;-74
2022/10/06 06:36:35;;;;;;;8.98;1.30;;;12.50;68.90;;;;;;5131104;27;20122;-74
2022/10/06 06:39:04;;;;;;;7.65;1.63;;;12.50;69.00;;;;;;5131479;28;20047;-74
2022/10/06 06:41:32;;;;;;;7.95;1.95;;;12.50;69.10;;;;;;5132221;28;20458;-73
2022/10/06 06:43:59;;;;;;;7.25;1.50;;;12.50;69.20;;;;;;5116161;27;20043;-73
2022/10/06 06:46:26;;;;;;;5.28;1.45;;;12.50;69.30;;;;;;5135587;27;20065;-73
2022/10/06 06:48:53;;;;;;;5.70;1.45;;;12.40;69.40;;;;;;5135312;27;20038;-73
2022/10/06 06:51:22;;;;;;;9.85;2.17;;;12.40;69.50;;;;;;5118900;27;20039;-73
2022/10/06 06:53:52;;;;;;;7.28;1.42;;;12.50;69.60;;;;;;5146308;27;20161;-73
2022/10/06 06:56:20;;;;;;;8.98;1.83;;;12.50;69.80;;;;;;5120177;27;20047;-73
2022/10/06 06:58:46;;;;;;;7.25;1.80;;;12.40;69.80;;;;;;5118617;27;20109;-73
2022/10/06 07:01:18;;;;;;;6.90;1.60;;;12.40;69.90;;;;;;5135752;27;20039;-73
2022/10/06 07:03:47;;;;;;;6.97;1.83;;;12.40;70.10;;;;;;5135760;27;20496;-73
2022/10/06 07:06:15;;;;;;;7.72;1.83;;;12.40;70.20;;;;;;5135291;27;20441;-73
2022/10/06 07:08:42;;;;;;;4.45;1.10;;;12.40;70.30;;;;;;5135398;27;20027;-73
2022/10/06 07:11:28;;;;;;;11.88;2.60;;;12.40;70.30;;;;;;5135534;27;20085;-73
2022/10/06 07:13:57;;;;;;;8.63;1.65;;;12.40;70.50;;;;;;5135360;27;20408;-73
2022/10/06 07:27:51;;;;;;;8.65;1.48;;;12.60;71.20;;;;;;5126357;27;20077;-73
2022/10/06 07:30:24;;;;;;;8.43;1.80;;;12.60;71.20;;;;;;5114929;28;20032;-73
2022/10/06 07:32:51;;;;;;;7.75;1.88;;;12.70;71.20;;;;;;5127948;27;20454;-73
2022/10/06 07:35:19;;;;;;;8.52;1.95;;;12.70;71.10;;;;;;5134915;27;20100;-73
2022/10/06 07:37:45;;;;;;;8.82;1.70;;;12.70;71.00;;;;;;5117629;27;20108;-73
2022/10/06 07:40:11;;;;;;;8.10;1.48;;;12.80;71.50;;;;;;5131718;27;20089;-73
2022/10/06 07:42:47;;;;;;;9.10;2.08;;;12.80;71.00;;;;;;5124319;27;20073;-73
2022/10/06 07:48:00;;;;;;;8.23;1.95;;;12.90;71.00;;;;;;5134033;27;20490;-73
2022/10/06 07:50:26;;;;;;;9.63;1.98;;;13.00;71.10;;;;;;5134741;27;20125;-73
2022/10/06 07:52:52;;;;;;;7.03;2.00;;;13.00;71.10;;;;;;5107305;28;20046;-73
2022/10/06 07:55:18;;;;;;;10.75;2.33;;;13.00;71.20;;;;;;5125849;27;20058;-73
2022/10/06 07:57:45;;;;;;;12.57;1.95;;;13.10;71.40;;;;;;5134094;27;20047;-74
2022/10/06 08:00:14;;;;;;;11.30;2.10;;;13.20;71.60;;;;;;5134404;27;20372;-73
2022/10/06 08:02:40;;;;;;;9.85;2.20;;;13.40;71.80;;;;;;5134116;27;20039;-74
2022/10/06 08:05:07;;;;;;;12.10;2.17;;;13.50;71.80;;;;;;5134161;27;20031;-74
2022/10/06 08:07:34;;;;;;;10.40;2.22;;;13.80;71.80;;;;;;5116691;27;20041;-74
2022/10/06 08:09:59;;;;;;;12.85;2.17;;;14.00;71.40;;;;;;5134076;27;20087;-74
2022/10/06 08:12:39;;;;;;;6.07;1.70;;;14.30;70.70;;;;;;5133484;27;20113;-74
2022/10/06 08:15:10;;;;;;;7.03;1.55;;;14.60;70.00;;;;;;5117354;27;20035;-74
2022/10/06 08:17:36;;;;;;;11.50;1.83;;;14.80;69.10;;;;;;5131318;27;20042;-74
2022/10/06 08:20:08;;;;;;;9.55;1.90;;;15.10;68.60;;;;;;5134227;27;20368;-74
2022/10/06 08:22:35;;;;;;;8.10;1.70;;;15.40;67.90;;;;;;5116372;27;20039;-74
2022/10/06 08:25:01;;;;;;;10.65;1.98;;;15.70;66.90;;;;;;5133458;27;20502;-74
2022/10/06 08:27:27;;;;;;;7.30;1.40;;;16.00;66.50;;;;;;5133447;27;20039;-75
2022/10/06 08:29:54;;;;;;;7.55;2.10;;;16.20;65.90;;;;;;5117165;27;20031;-74
2022/10/06 08:32:21;;;;;;;8.98;1.73;;;16.50;64.90;;;;;;5133382;27;20049;-74
2022/10/06 08:34:47;;;;;;;8.80;1.75;;;16.80;64.00;;;;;;5133940;27;20078;-74
2022/10/06 08:37:25;;;;;;;7.05;1.48;;;17.00;63.30;;;;;;5133541;27;20092;-74
2022/10/06 08:39:52;;;;;;;8.07;1.85;;;17.20;62.50;;;;;;5096273;28;20035;-74
2022/10/06 08:42:40;;;;;;;9.55;2.08;;;17.40;61.90;;;;;;5113403;28;20054;-78
2022/10/06 08:45:16;;;;;;;7.25;1.98;;;17.60;60.80;;;;;;5117020;27;20437;-74
2022/10/06 08:47:59;;;;;;;10.20;2.10;;;17.60;60.40;;;;;;5133557;27;20039;-74
2022/10/06 08:50:27;;;;;;;9.25;1.90;;;17.80;60.00;;;;;;5133609;27;20035;-74
2022/10/06 08:53:17;;;;;;;8.02;2.47;;;17.90;60.00;;;;;;5116390;27;20053;-74
2022/10/06 08:56:02;;;;;;;10.55;1.95;;;18.10;59.00;;;;;;5133584;27;20039;-74
2022/10/06 08:58:29;;;;;;;;;;;18.20;58.80;;;;;;5133605;27;20043;-74
2022/10/06 09:01:08;;;;;;;8.02;1.90;;;18.30;59.50;;;;;;5133834;27;20324;-74
2022/10/06 09:03:37;;;;;;;10.18;1.85;;;18.40;58.90;;;;;;5133279;27;20050;-74
2022/10/06 09:06:36;;;;;;;9.10;1.73;;;18.40;59.00;;;;;;5132524;27;20058;-74
2022/10/06 09:09:30;;;;;;;7.57;1.98;;;18.50;58.30;;;;;;5112347;27;20039;-74
2022/10/06 09:12:18;;;;;;;7.53;1.63;;;18.60;58.20;;;;;;5133400;27;20042;-74
2022/10/06 09:15:19;;;;;;;7.35;1.83;;;18.70;57.70;;;;;;5112829;28;20032;-74
2022/10/06 09:17:49;;;;;;;7.43;2.05;;;18.80;57.40;;;;;;5102041;27;20031;-74
2022/10/06 09:20:53;;;;;;;9.68;2.42;;;18.90;57.60;;;;;;5143776;27;20063;-74
2022/10/06 09:26:21;;;;;;;6.57;1.42;;;19.00;57.20;;;;;;5145651;27;20049;-74
2022/10/06 09:28:48;;;;;;;8.73;2.15;;;19.00;56.60;;;;;;5127491;27;20037;-71
2022/10/06 09:31:26;;;;;;;7.25;1.88;;;19.00;56.40;;;;;;5127320;27;20042;-72
2022/10/06 09:33:54;;;;;;;4.90;1.45;;;18.90;55.80;;;;;;5142237;27;20183;-72
2022/10/06 09:36:21;;;;;;;7.30;1.85;;;18.90;55.50;;;;;;5147487;27;20524;-72
2022/10/06 09:38:52;;;;;;;8.80;2.00;;;18.80;55.40;;;;;;5128038;27;20034;-72
2022/10/06 09:41:23;;;;;;;6.85;1.40;;;18.80;54.90;;;;;;5145820;27;20046;-72
2022/10/06 09:44:04;;;;;;;9.05;1.65;;;18.70;54.90;;;;;;5129288;27;20385;-72
2022/10/06 09:46:40;;;;;;;7.75;1.77;;;18.60;54.90;;;;;;5152448;27;20125;-72
2022/10/06 09:49:18;;;;;;;8.77;1.88;;;18.40;54.40;;;;;;5139360;27;20039;-71
2022/10/06 09:52:11;;;;;;;9.50;3.15;;;18.30;54.30;;;;;;5115371;27;20036;-74
2022/10/06 09:54:40;;;;;;;7.35;1.17;;;18.10;54.10;;;;;;5110865;27;20118;-74
2022/10/06 09:57:23;;;;;;;8.20;1.88;;;18.00;54.60;;;;;;5115745;28;20058;-71
2022/10/06 09:59:50;;;;;;;8.07;1.60;;;17.90;55.10;;;;;;5132415;28;20046;-72
2022/10/06 10:02:35;;;;;;;8.98;1.85;;;17.80;55.90;;;;;;5144881;27;20442;-72
2022/10/06 10:05:05;;;;;;;4.72;1.20;;;17.80;55.80;;;;;;5141001;27;20114;-72
2022/10/06 10:07:33;;;;;;;10.27;1.83;;;17.70;55.90;;;;;;5138438;27;20046;-72
2022/10/06 10:10:20;;;;;;;6.65;1.83;;;17.70;56.80;;;;;;5136021;27;20046;-72
2022/10/06 10:12:57;;;;;;;4.35;1.20;;;17.70;57.10;;;;;;5117215;28;20119;-73
2022/10/06 10:15:25;;;;;;;8.70;1.92;;;17.70;57.30;;;;;;5132204;27;20126;-72
2022/10/06 10:18:15;;;;;;;8.60;1.55;;;17.70;57.30;;;;;;5134201;27;20405;-73
2022/10/06 10:20:56;;;;;;;8.45;1.95;;;17.70;57.10;;;;;;5123127;27;20055;-73
2022/10/06 10:23:35;;;;;;;8.82;2.38;;;17.70;56.80;;;;;;5130952;27;20117;-73
2022/10/06 10:26:12;;;;;;;7.03;1.77;;;17.80;56.60;;;;;;5136623;27;20126;-73
2022/10/06 10:28:56;;;;;;;9.38;1.33;;;17.80;56.70;;;;;;5136461;27;20504;-73
2022/10/06 10:31:32;;;;;;;5.95;1.23;;;17.80;56.20;;;;;;5119172;27;20039;-73
2022/10/06 10:34:24;;;;;;;6.15;1.67;;;17.90;56.20;;;;;;5135943;27;20079;-73
2022/10/06 10:37:05;;;;;;;5.15;1.10;;;18.00;56.40;;;;;;5098393;27;20368;-72
2022/10/06 10:39:48;;;;;;;9.05;1.50;;;18.00;56.80;;;;;;5136101;27;20502;-73
2022/10/06 10:42:23;;;;;;;7.55;1.88;;;18.00;56.10;;;;;;5135996;27;20035;-73
2022/10/06 10:44:55;;;;;;;8.05;1.63;;;18.10;55.50;;;;;;5135724;27;20636;-73
2022/10/06 10:47:26;;;;;;;9.07;1.60;;;18.10;55.60;;;;;;5136366;27;20444;-73
2022/10/06 10:50:03;;;;;;;7.43;1.50;;;18.10;55.60;;;;;;5135929;27;20047;-73
2022/10/06 10:52:34;;;;;;;7.88;2.05;;;18.10;55.70;;;;;;5135742;27;20042;-73
2022/10/06 10:55:38;;;;;;;4.63;1.33;;;18.10;55.30;;;;;;5118738;27;20077;-73
2022/10/06 10:58:12;;;;;;;7.57;1.73;;;18.20;54.90;;;;;;5127336;27;20043;-73
2022/10/06 11:00:45;;;;;;;6.28;1.20;;;18.20;54.70;;;;;;5135566;27;20509;-73
2022/10/06 11:03:10;;;;;;;5.38;1.58;;;18.20;54.10;;;;;;5135594;27;20510;-73
2022/10/06 11:05:50;;;;;;;6.93;1.33;;;18.20;53.40;;;;;;5135472;27;20043;-73
2022/10/06 11:08:40;;;;;;;6.82;1.25;;;18.20;53.60;;;;;;5135628;27;20087;-73
2022/10/06 11:11:35;;;;;;;6.35;2.08;;;18.20;53.60;;;;;;5135551;27;20035;-73
2022/10/06 11:14:06;;;;;;;6.60;0.98;;;18.20;53.60;;;;;;5135390;27;20490;-73
2022/10/06 11:16:57;;;;;;;4.88;1.08;;;18.20;53.60;;;;;;5114868;28;20052;-73
2022/10/06 11:19:53;;;;;;;6.82;1.27;;;18.20;53.60;;;;;;5127050;27;20084;-75
2022/10/06 11:22:28;;;;;;;8.23;1.65;;;18.30;53.30;;;;;;5135535;27;20046;-74
2022/10/06 11:25:14;;;;;;;5.68;1.65;;;18.20;53.20;;;;;;5146233;27;20031;-74
2022/10/06 11:28:22;;;;;;;4.65;1.27;;;18.30;53.30;;;;;;5097914;28;20040;-74
2022/10/06 11:30:47;;;;;;;6.43;0.98;;;18.20;53.10;;;;;;5113586;27;20135;-74
2022/10/06 11:33:21;;;;;;;10.70;2.08;;;18.20;53.00;;;;;;5118136;27;20070;-74
2022/10/06 11:35:47;;;;;;;;;;;18.20;52.40;;;;;;5135662;27;20085;-74
2022/10/06 11:38:39;;;;;;;7.53;1.35;;;18.20;52.80;;;;;;5135227;27;20390;-75
2022/10/06 11:41:12;;;;;;;6.47;1.50;;;18.20;53.50;;;;;;5135015;27;20039;-74
2022/10/06 11:43:45;;;;;;;5.22;1.00;;;18.20;53.60;;;;;;5135045;27;20460;-74
2022/10/06 11:46:29;;;;;;;4.55;1.00;;;18.30;53.20;;;;;;5117175;27;20059;-74
2022/10/06 11:49:29;;;;;;;8.50;1.85;;;18.30;51.80;;;;;;5118096;27;20418;-74
2022/10/06 11:51:56;;;;;;;6.60;1.70;;;18.30;52.10;;;;;;5134868;27;20062;-74
2022/10/06 11:54:46;;;;;;;9.30;1.75;;;18.20;52.20;;;;;;5117706;27;20452;-74
2022/10/06 11:57:21;;;;;;;5.75;1.10;;;18.20;51.80;;;;;;5134716;27;20039;-74
2022/10/06 12:00:03;;;;;;;7.45;1.20;;;18.20;52.00;;;;;;5134657;27;20475;-74
2022/10/06 12:02:29;;;;;;;6.18;1.65;;;18.20;51.90;;;;;;5101383;27;20130;-74
2022/10/06 12:05:17;;;;;;;6.53;1.27;;;18.20;52.00;;;;;;5134722;27;20129;-74
2022/10/06 12:07:58;;;;;;;7.50;1.38;;;18.20;51.70;;;;;;5113863;28;20556;-74
2022/10/06 12:10:26;;;;;;;5.95;1.40;;;18.20;50.80;;;;;;5116826;27;20074;-74
2022/10/06 12:12:57;;;;;;;7.85;1.92;;;18.10;50.50;;;;;;5134431;27;20023;-74
2022/10/06 12:15:35;;;;;;;5.90;1.23;;;18.10;51.00;;;;;;5134315;27;20039;-73
2022/10/06 12:18:24;;;;;;;5.03;1.15;;;18.10;50.50;;;;;;5134358;27;20039;-73
2022/10/06 12:21:22;;;;;;;6.43;1.35;;;18.10;51.40;;;;;;5103955;27;20047;-74
2022/10/06 12:24:13;;;;;;;5.50;1.50;;;18.10;51.10;;;;;;5134098;27;20134;-73
2022/10/06 12:27:05;;;;;;;3.72;0.85;;;18.00;51.30;;;;;;5133732;27;20118;-73
2022/10/06 12:29:37;;;;;;;8.57;1.80;;;18.00;51.30;;;;;;5134446;27;20035;-74
2022/10/06 12:32:38;;;;;;;5.35;1.05;;;18.00;51.40;;;;;;5133808;27;20073;-74
2022/10/06 12:35:07;;;;;;;5.30;1.25;;;18.00;51.30;;;;;;5133841;27;20099;-74
2022/10/06 12:37:46;;;;;;;6.72;1.58;;;18.00;51.00;;;;;;5133775;27;20043;-74
2022/10/06 12:40:47;;;;;;;4.55;1.00;;;17.90;51.00;;;;;;5116821;27;20493;-73
2022/10/06 12:43:18;;;;;;;5.50;1.20;;;17.90;51.20;;;;;;5123138;27;20039;-73
2022/10/06 12:46:11;;;;;;;9.02;1.90;;;17.90;51.50;;;;;;5133572;27;20093;-73
2022/10/06 12:48:40;;;;;;;6.60;1.25;;;18.00;51.50;;;;;;5118873;27;20083;-73
2022/10/06 12:51:37;;;;;;;8.32;1.30;;;17.90;51.60;;;;;;5133702;27;20402;-73
2022/10/06 12:54:08;;;;;;;8.48;1.70;;;17.90;51.50;;;;;;5123247;27;20065;-74
2022/10/06 12:56:39;;;;;;;5.68;1.50;;;17.90;51.40;;;;;;5133290;27;20494;-74
2022/10/06 12:59:25;;;;;;;7.50;1.85;;;17.90;51.70;;;;;;5116377;27;20043;-73
2022/10/06 13:02:00;;;;;;;7.28;1.65;;;18.00;51.20;;;;;;5115978;27;20042;-73
2022/10/06 13:04:53;;;;;;;7.88;1.92;;;17.90;51.00;;;;;;5116100;27;20059;-73
2022/10/06 13:07:20;;;;;;;7.72;2.08;;;18.00;50.90;;;;;;5129720;27;20092;-73
2022/10/06 13:09:51;;;;;;;9.57;2.22;;;17.90;50.90;;;;;;5133663;27;20122;-73
2022/10/06 13:12:26;;;;;;;5.72;1.90;;;17.90;50.80;;;;;;5132671;27;20039;-73
2022/10/06 13:15:12;;;;;;;5.03;1.63;;;17.90;50.90;;;;;;5133525;27;20039;-73
2022/10/06 13:18:00;;;;;;;5.85;1.65;;;18.00;51.00;;;;;;5133182;27;20494;-73
2022/10/06 13:20:42;;;;;;;7.03;1.55;;;17.90;51.30;;;;;;5133218;27;20070;-73
2022/10/06 13:23:07;;;;;;;6.25;2.25;;;18.00;51.00;;;;;;5132604;27;20039;-73
2022/10/06 13:25:42;;;;;;;6.20;1.65;;;17.90;51.00;;;;;;5133006;27;20126;-73
2022/10/06 13:28:43;;;;;;;8.52;1.55;;;18.00;51.10;;;;;;5133069;27;20378;-73
2022/10/06 13:31:32;;;;;;;6.15;1.48;;;18.00;50.60;;;;;;5128393;27;20047;-73